createdAt,value
2024-05-09T00:03:47.413Z,10.40
2024-05-09T00:07:51.572Z,10.50
2024-05-09T00:11:56.159Z,10.40
2024-05-09T00:16:00.586Z,10.50
2024-05-09T00:20:05.183Z,10.50
2024-05-09T00:24:11.377Z,10.60
2024-05-09T00:28:14.244Z,10.60
2024-05-09T00:32:16.908Z,10.50
2024-05-09T00:36:19.508Z,10.70
2024-05-09T00:40:30.869Z,10.70
2024-05-09T00:44:40.696Z,10.70
2024-05-09T00:48:45.091Z,10.70
2024-05-09T00:52:48.737Z,10.70
2024-05-09T00:56:52.666Z,10.80
2024-05-09T01:00:58.699Z,11.00
2024-05-09T01:05:02.358Z,10.90
2024-05-09T01:09:04.784Z,10.80
2024-05-09T01:13:07.843Z,10.90
2024-05-09T01:17:10.480Z,11.00
2024-05-09T01:21:12.945Z,10.90
2024-05-09T01:25:15.886Z,10.80
2024-05-09T01:29:18.699Z,10.80
2024-05-09T01:33:21.165Z,10.50
2024-05-09T01:37:23.591Z,10.40
2024-05-09T01:41:25.998Z,10.40
2024-05-09T01:45:28.407Z,10.40
2024-05-09T01:49:37.084Z,10.40
2024-05-09T01:53:39.789Z,10.10
2024-05-09T01:57:42.441Z,10.00
2024-05-09T02:01:56.351Z,9.90
2024-05-09T02:06:00.100Z,10.00
2024-05-09T02:10:03.768Z,10.00
2024-05-09T02:14:08.932Z,9.60
2024-05-09T02:18:12.012Z,9.70
2024-05-09T02:22:14.787Z,9.60
2024-05-09T02:26:17.140Z,9.60
2024-05-09T02:30:29.890Z,9.20
2024-05-09T02:34:40.291Z,9.20
2024-05-09T02:38:42.645Z,9.40
2024-05-09T02:42:45.139Z,9.40
2024-05-09T02:46:47.499Z,9.30
2024-05-09T02:50:49.955Z,9.10
2024-05-09T02:54:52.911Z,9.20
2024-05-09T02:58:56.786Z,9.00
2024-05-09T03:03:00.178Z,8.90
2024-05-09T03:07:02.639Z,9.00
2024-05-09T03:11:05.390Z,8.90
2024-05-09T03:15:08.243Z,8.70
2024-05-09T03:19:10.868Z,8.90
2024-05-09T03:23:13.543Z,9.00
2024-05-09T03:27:15.997Z,8.90
2024-05-09T03:31:19.771Z,8.90
2024-05-09T03:35:22.219Z,8.90
2024-05-09T03:39:24.670Z,8.80
2024-05-09T03:43:26.942Z,8.60
2024-05-09T03:47:29.409Z,8.70
2024-05-09T03:51:31.838Z,8.70
2024-05-09T03:55:34.547Z,8.70
2024-05-09T03:59:37.102Z,8.70
2024-05-09T04:03:39.823Z,8.60
2024-05-09T04:07:45.695Z,8.60
2024-05-09T04:11:48.168Z,8.40
2024-05-09T04:15:50.684Z,8.50
2024-05-09T04:19:53.086Z,8.40
2024-05-09T04:23:55.500Z,8.60
2024-05-09T04:27:58.152Z,8.70
2024-05-09T04:32:00.665Z,8.60
2024-05-09T04:36:03.095Z,8.50
2024-05-09T04:40:08.961Z,8.30
2024-05-09T04:44:13.688Z,8.70
2024-05-09T04:48:17.182Z,8.80
2024-05-09T04:52:19.905Z,8.90
2024-05-09T04:56:22.363Z,9.00
2024-05-09T05:00:32.541Z,9.10
2024-05-09T05:04:39.201Z,9.00
2024-05-09T05:08:41.879Z,9.10
2024-05-09T05:13:02.996Z,9.30
2024-05-09T05:17:05.699Z,9.50
2024-05-09T05:21:08.008Z,9.50
2024-05-09T05:25:10.289Z,9.60
2024-05-09T05:29:13.106Z,9.70
2024-05-09T05:33:16.173Z,9.90
2024-05-09T05:37:18.599Z,10.00
2024-05-09T05:41:20.919Z,10.00
2024-05-09T05:45:23.560Z,10.40
2024-05-09T05:49:27.321Z,10.70
2024-05-09T05:53:30.024Z,10.60
2024-05-09T05:57:32.584Z,10.50
2024-05-09T06:01:34.846Z,10.50
2024-05-09T06:05:40.054Z,10.80
2024-05-09T06:09:44.791Z,11.10
2024-05-09T06:13:48.461Z,11.30
2024-05-09T06:17:51.067Z,11.50
2024-05-09T06:21:53.513Z,11.70
2024-05-09T06:25:56.079Z,11.70
2024-05-09T06:29:58.499Z,11.90
2024-05-09T06:34:01.260Z,12.20
2024-05-09T06:38:04.359Z,12.30
2024-05-09T06:42:06.984Z,12.70
2024-05-09T06:46:09.287Z,12.90
2024-05-09T06:50:20.184Z,12.50
2024-05-09T06:54:26.753Z,13.50
2024-05-09T06:58:29.100Z,13.60
2024-05-09T07:02:32.488Z,13.70
2024-05-09T07:06:35.320Z,14.20
2024-05-09T07:10:37.771Z,13.60
2024-05-09T07:14:40.539Z,13.70
2024-05-09T07:18:43.365Z,14.30
2024-05-09T07:22:46.005Z,14.10
2024-05-09T07:26:48.385Z,14.70
2024-05-09T07:30:50.712Z,14.60
2024-05-09T07:34:53.432Z,15.00
2024-05-09T07:38:55.662Z,14.70
2024-05-09T07:42:58.038Z,14.80
2024-05-09T07:48:14.066Z,15.10
2024-05-09T07:55:29.047Z,14.90
2024-05-09T07:59:33.370Z,14.90
2024-05-09T08:03:38.773Z,15.10
2024-05-09T08:07:41.193Z,15.40
2024-05-09T08:11:45.168Z,15.40
2024-05-09T08:15:47.533Z,15.90
2024-05-09T08:19:49.975Z,15.70
2024-05-09T08:23:52.523Z,16.00
2024-05-09T08:27:55.026Z,16.00
2024-05-09T08:31:59.149Z,16.30
2024-05-09T08:36:01.535Z,16.60
2024-05-09T08:40:06.533Z,16.70
2024-05-09T08:44:11.115Z,16.60
2024-05-09T08:48:15.748Z,16.80
2024-05-09T08:52:19.640Z,17.10
2024-05-09T08:56:27.717Z,16.80
2024-05-09T09:00:36.958Z,17.20
2024-05-09T09:04:45.676Z,16.80
2024-05-09T09:08:49.393Z,16.70
2024-05-09T09:13:12.075Z,17.00
2024-05-09T09:17:18.570Z,17.50
2024-05-09T09:21:20.920Z,17.50
2024-05-09T09:25:23.523Z,17.10
2024-05-09T09:29:26.672Z,16.90
2024-05-09T09:33:31.483Z,17.40
2024-05-09T09:37:36.568Z,17.70
2024-05-09T09:41:39.771Z,17.50
2024-05-09T09:45:43.923Z,17.90
2024-05-09T09:49:47.534Z,17.60
2024-05-09T09:53:53.057Z,17.50
2024-05-09T09:57:56.907Z,17.50
2024-05-09T10:01:59.406Z,17.50
2024-05-09T10:06:01.779Z,17.90
2024-05-09T10:10:07.137Z,17.90
2024-05-09T10:14:11.841Z,18.20
2024-05-09T10:18:14.613Z,18.40
2024-05-09T10:22:28.224Z,18.20
2024-05-09T10:26:33.245Z,18.50
2024-05-09T10:30:36.738Z,18.70
2024-05-09T10:34:39.380Z,19.00
2024-05-09T10:38:43.286Z,18.60
2024-05-09T10:42:46.044Z,18.10
2024-05-09T10:46:50.452Z,18.20
2024-05-09T10:50:53.206Z,18.80
2024-05-09T10:54:55.971Z,18.60
2024-05-09T10:58:58.420Z,19.00
2024-05-09T11:03:00.986Z,19.20
2024-05-09T11:07:05.633Z,19.00
2024-05-09T11:11:09.086Z,19.10
2024-05-09T11:15:11.815Z,19.20
2024-05-09T11:19:14.905Z,18.90
2024-05-09T11:23:17.711Z,19.30
2024-05-09T11:27:21.393Z,19.20
2024-05-09T11:31:23.769Z,19.90
2024-05-09T11:35:26.651Z,19.70
2024-05-09T11:39:29.245Z,20.10
2024-05-09T11:43:31.569Z,19.90
2024-05-09T11:47:33.977Z,19.60
2024-05-09T11:51:36.166Z,19.80
2024-05-09T11:55:39.484Z,19.60
2024-05-09T11:59:41.690Z,19.40
2024-05-09T12:03:44.116Z,19.50
2024-05-09T12:07:46.362Z,19.50
2024-05-09T12:11:48.579Z,19.40
2024-05-09T12:15:50.852Z,19.80
2024-05-09T12:19:53.284Z,19.90
2024-05-09T12:23:55.327Z,20.00
2024-05-09T12:27:57.559Z,19.60
2024-05-09T12:32:00.440Z,20.30
2024-05-09T12:36:02.971Z,20.20
2024-05-09T12:40:12.707Z,20.50
2024-05-09T12:44:20.627Z,20.10
2024-05-09T12:48:22.865Z,20.00
2024-05-09T12:52:25.123Z,20.30
2024-05-09T12:56:27.621Z,19.90
2024-05-09T13:00:33.766Z,19.80
2024-05-09T13:04:37.752Z,19.90
2024-05-09T13:08:40.398Z,19.70
2024-05-09T13:12:42.978Z,20.10
2024-05-09T13:16:45.195Z,20.30
2024-05-09T13:20:47.400Z,19.70
2024-05-09T13:24:49.665Z,20.30
2024-05-09T13:28:51.803Z,19.60
2024-05-09T13:32:54.588Z,20.20
2024-05-09T13:36:57.101Z,20.20
2024-05-09T13:40:59.308Z,20.00
2024-05-09T13:45:01.437Z,20.40
2024-05-09T13:49:04.110Z,20.00
2024-05-09T13:53:07.708Z,20.30
2024-05-09T13:57:10.831Z,20.30
2024-05-09T14:01:13.112Z,20.20
2024-05-09T14:05:15.843Z,20.70
2024-05-09T14:09:18.247Z,20.10
2024-05-09T14:13:20.618Z,20.10
2024-05-09T14:17:22.897Z,20.30
2024-05-09T14:21:25.346Z,20.40
2024-05-09T14:25:28.571Z,20.10
2024-05-09T14:29:33.643Z,19.90
2024-05-09T14:33:36.596Z,20.20
2024-05-09T14:37:39.837Z,20.20
2024-05-09T14:41:42.392Z,19.90
2024-05-09T14:45:45.314Z,20.30
2024-05-09T14:49:47.704Z,20.30
2024-05-09T14:53:49.980Z,20.00
2024-05-09T14:57:52.438Z,20.10
2024-05-09T15:01:54.729Z,20.00
2024-05-09T15:05:57.156Z,20.00
2024-05-09T15:09:59.500Z,19.70
2024-05-09T15:14:01.705Z,20.10
2024-05-09T15:18:07.496Z,19.90
2024-05-09T15:22:11.998Z,20.20
2024-05-09T15:26:14.318Z,20.20
2024-05-09T15:30:23.874Z,20.10
2024-05-09T15:34:33.259Z,20.30
2024-05-09T15:38:35.780Z,20.20
2024-05-09T15:42:39.702Z,20.20
2024-05-09T15:46:43.107Z,20.50
2024-05-09T15:50:45.452Z,20.40
2024-05-09T15:54:47.781Z,20.50
2024-05-09T15:58:50.073Z,20.50
2024-05-09T16:02:52.727Z,21.10
2024-05-09T16:06:55.397Z,20.20
2024-05-09T16:10:57.922Z,19.70
2024-05-09T16:15:00.483Z,20.10
2024-05-09T16:19:02.746Z,20.10
2024-05-09T16:23:04.979Z,19.90
2024-05-09T16:27:07.105Z,20.00
2024-05-09T16:31:09.304Z,19.90
2024-05-09T16:35:11.639Z,19.60
2024-05-09T16:39:13.812Z,19.40
2024-05-09T16:43:16.322Z,19.30
2024-05-09T16:47:19.590Z,19.10
2024-05-09T16:51:22.290Z,19.10
2024-05-09T16:55:28.198Z,19.10
2024-05-09T16:59:30.670Z,18.70
2024-05-09T17:03:33.064Z,18.90
2024-05-09T17:07:35.442Z,18.70
2024-05-09T17:11:37.660Z,18.60
2024-05-09T17:15:40.107Z,18.50
2024-05-09T17:19:44.882Z,18.50
2024-05-09T17:23:47.216Z,18.50
2024-05-09T17:27:49.404Z,18.40
2024-05-09T17:31:51.863Z,18.50
2024-05-09T17:35:54.217Z,18.40
2024-05-09T17:39:56.380Z,18.30
2024-05-09T17:43:58.582Z,18.30
2024-05-09T17:48:01.825Z,18.10
2024-05-09T17:52:05.544Z,18.10
2024-05-09T17:56:10.934Z,18.20
2024-05-09T18:00:17.385Z,18.00
2024-05-09T18:04:20.523Z,17.90
2024-05-09T18:08:23.137Z,17.90
2024-05-09T18:12:25.267Z,17.80
2024-05-09T18:16:27.733Z,17.80
2024-05-09T18:20:38.151Z,17.90
2024-05-09T18:24:45.689Z,17.90
2024-05-09T18:28:47.806Z,17.80
2024-05-09T18:32:50.070Z,17.70
2024-05-09T18:36:52.366Z,17.80
2024-05-09T18:40:54.872Z,17.80
2024-05-09T18:44:57.137Z,17.80
2024-05-09T18:48:59.415Z,17.70
2024-05-09T18:53:01.622Z,17.50
2024-05-09T18:57:03.866Z,17.50
2024-05-09T19:01:06.343Z,17.40
2024-05-09T19:05:08.730Z,17.40
2024-05-09T19:09:11.092Z,17.20
2024-05-09T19:13:14.332Z,17.10
2024-05-09T19:17:17.062Z,17.00
2024-05-09T19:21:19.232Z,17.00
2024-05-09T19:25:21.412Z,16.80
2024-05-09T19:29:23.610Z,16.70
2024-05-09T19:33:26.022Z,16.60
2024-05-09T19:37:29.843Z,16.60
2024-05-09T19:41:32.513Z,16.40
2024-05-09T19:45:35.754Z,16.40
2024-05-09T19:49:38.785Z,16.40
2024-05-09T19:53:40.988Z,16.30
2024-05-09T19:57:43.109Z,16.10
2024-05-09T20:01:45.587Z,16.10
2024-05-09T20:05:48.576Z,16.10
2024-05-09T20:09:50.969Z,15.90
2024-05-09T20:13:53.122Z,15.90
2024-05-09T20:17:55.885Z,15.50
2024-05-09T20:21:59.230Z,15.40
2024-05-09T20:26:01.488Z,15.10
2024-05-09T20:30:07.989Z,15.20
2024-05-09T20:34:14.153Z,15.00
2024-05-09T20:38:16.359Z,15.10
2024-05-09T20:42:18.644Z,14.90
2024-05-09T20:46:20.937Z,14.70
2024-05-09T20:50:32.356Z,13.80
2024-05-09T20:54:40.343Z,13.70
2024-05-09T20:58:42.514Z,14.10
2024-05-09T21:02:44.765Z,14.00
2024-05-09T21:06:47.092Z,13.90
2024-05-09T21:10:49.447Z,13.80
2024-05-09T21:14:51.672Z,13.40
2024-05-09T21:18:53.898Z,13.80
2024-05-09T21:22:56.094Z,13.40
2024-05-09T21:26:58.238Z,13.00
2024-05-09T21:31:01.708Z,13.10
2024-05-09T21:35:03.983Z,13.40
2024-05-09T21:39:06.213Z,13.30
2024-05-09T21:43:08.905Z,13.40
2024-05-09T21:47:11.515Z,13.30
2024-05-09T21:51:16.559Z,13.20
2024-05-09T21:55:19.254Z,12.90
2024-05-09T21:59:21.679Z,12.80
2024-05-09T22:03:24.117Z,12.60
2024-05-09T22:07:26.596Z,12.40
2024-05-09T22:11:29.125Z,12.50
2024-05-09T22:15:34.018Z,12.30
2024-05-09T22:19:36.246Z,12.30
2024-05-09T22:23:38.514Z,12.20
2024-05-09T22:27:40.712Z,12.60
2024-05-09T22:31:42.817Z,12.70
2024-05-09T22:35:45.398Z,12.70
2024-05-09T22:39:47.698Z,12.30
2024-05-09T22:43:49.917Z,12.40
2024-05-09T22:47:52.218Z,12.20
2024-05-09T22:51:54.660Z,12.30
2024-05-09T22:55:56.896Z,12.20
2024-05-09T22:59:59.057Z,12.10
2024-05-09T23:04:02.345Z,12.10
2024-05-09T23:08:05.072Z,12.30
2024-05-09T23:12:07.374Z,12.30
2024-05-09T23:16:10.032Z,11.80
2024-05-09T23:20:14.794Z,12.10
2024-05-09T23:24:17.203Z,11.90
2024-05-09T23:28:19.393Z,11.90
2024-05-09T23:32:22.148Z,11.80
2024-05-09T23:36:26.956Z,11.60
2024-05-09T23:44:34.126Z,11.40
2024-05-09T23:48:36.317Z,11.20
2024-05-09T23:52:38.498Z,11.40
2024-05-09T23:56:40.760Z,11.60
